Time;durP1;ratioP1;P1;durP2;ratioP2;P2;SDS_P1;SDS_P2;PMS_P1;PMS_P2;Temp;Humidity;BMP_temperature;BMP_pressure;BME280_temperature;BME280_humidity;BME280_pressure;Samples;Min_cycle;Max_cycle;Signal;HPM_P1;HPM_P2
2024/04/04 00:00:46;;;;;;;6.40;2.30;;;;;;;9.86;57.07;98990.33;78035;1300;3050097;-61
2024/04/04 00:03:13;;;;;;;4.10;2.20;;;;;;;9.82;57.46;98986.21;79490;1301;3014003;-61
2024/04/04 00:05:40;;;;;;;7.80;2.30;;;;;;;9.75;57.98;98990.49;79457;1301;3013160;-64
2024/04/04 00:08:08;;;;;;;6.80;2.70;;;;;;;9.79;58.03;98988.89;78315;1301;3028009;-62
2024/04/04 00:10:34;;;;;;;7.70;2.50;;;;;;;9.74;58.19;98989.87;79396;1295;3013587;-61
2024/04/04 00:13:01;;;;;;;11.30;2.50;;;;;;;9.65;58.82;98990.62;79519;1295;3011835;-61
2024/04/04 00:15:29;;;;;;;7.90;2.40;;;;;;;9.60;58.93;98986.39;78008;1300;3029274;-61
2024/04/04 00:17:56;;;;;;;8.10;2.30;;;;;;;9.58;59.18;98990.02;79348;1299;3013491;-59
2024/04/04 00:20:22;;;;;;;8.50;3.10;;;;;;;9.61;58.96;98990.73;79334;1300;3013244;-60
2024/04/04 00:22:50;;;;;;;6.60;2.60;;;;;;;9.68;58.58;98992.40;78095;1295;3027872;-60
2024/04/04 00:25:17;;;;;;;6.70;2.60;;;;;;;9.60;59.05;98996.35;79235;1295;3012901;-62
2024/04/04 00:27:44;;;;;;;8.50;2.60;;;;;;;9.54;59.24;98996.73;79124;1299;3012753;-61
2024/04/04 00:30:12;;;;;;;5.00;2.20;;;;;;;9.44;59.84;99000.40;77958;1300;3026313;-60
2024/04/04 00:32:38;;;;;;;5.50;2.40;;;;;;;9.36;60.01;98992.33;79302;1301;3013112;-61
2024/04/04 00:35:05;;;;;;;6.70;2.60;;;;;;;9.30;60.46;98994.45;79149;1301;3011514;-60
2024/04/04 00:37:34;;;;;;;7.80;2.30;;;;;;;9.29;60.59;98995.91;78125;1300;3052475;-60
2024/04/04 00:40:00;;;;;;;9.40;2.80;;;;;;;9.34;60.37;98997.17;79396;1298;3018384;-60
2024/04/04 00:42:27;;;;;;;4.90;2.10;;;;;;;9.25;61.10;98994.55;79481;1295;3011355;-61
2024/04/04 00:44:55;;;;;;;5.90;2.40;;;;;;;9.23;60.94;98996.27;78615;1299;3025834;-61
2024/04/04 00:47:21;;;;;;;5.80;2.50;;;;;;;9.29;60.76;98998.48;79380;1297;3012819;-63
2024/04/04 00:49:48;;;;;;;7.30;2.60;;;;;;;9.24;61.34;99001.08;79400;1296;3013477;-63
2024/04/04 00:52:16;;;;;;;4.80;2.20;;;;;;;9.23;61.35;99005.88;78121;1299;3026314;-63
2024/04/04 00:54:45;;;;;;;4.80;2.50;;;;;;;9.14;61.86;99007.67;79811;1295;3013091;-63
2024/04/04 00:57:11;;;;;;;6.30;2.30;;;;;;;9.07;61.98;99016.45;79733;1298;3013198;-62
2024/04/04 00:59:39;;;;;;;5.40;2.10;;;;;;;9.01;62.27;99013.01;78314;1295;3050596;-59
2024/04/04 01:02:06;;;;;;;5.80;1.80;;;;;;;8.99;62.57;99013.12;79437;1295;3021217;-62
2024/04/04 01:04:32;;;;;;;6.00;1.80;;;;;;;8.81;63.40;99018.73;79487;1301;3011657;-62
2024/04/04 01:07:00;;;;;;;8.80;2.70;;;;;;;8.67;64.21;99014.68;78087;1299;3026205;-61
2024/04/04 01:09:27;;;;;;;4.70;1.90;;;;;;;8.69;64.09;99012.13;79597;1295;3012704;-62
2024/04/04 01:11:54;;;;;;;4.80;2.30;;;;;;;8.83;63.37;99006.39;79284;1300;3011628;-61
2024/04/04 01:14:22;;;;;;;5.20;2.00;;;;;;;8.78;64.22;99003.39;78290;1300;3050024;-64
2024/04/04 01:16:49;;;;;;;3.20;1.60;;;;;;;8.66;64.58;99004.59;79715;1301;3013141;-63
2024/04/04 01:19:15;;;;;;;5.80;2.10;;;;;;;8.75;64.17;98999.02;79483;1299;3011618;-61
2024/04/04 01:21:43;;;;;;;8.80;2.20;;;;;;;8.66;64.55;99004.11;78255;1294;3028859;-61
2024/04/04 01:24:10;;;;;;;3.80;2.00;;;;;;;8.67;64.41;99004.73;79416;1295;3013365;-62
2024/04/04 01:26:37;;;;;;;6.00;2.00;;;;;;;8.66;64.62;99009.67;79608;1298;3011421;-62
2024/04/04 01:29:05;;;;;;;8.40;1.90;;;;;;;8.64;64.49;99012.91;78133;1298;3025882;-61
2024/04/04 01:31:31;;;;;;;4.80;2.20;;;;;;;8.56;65.17;99009.77;79465;1298;3013001;-63
2024/04/04 01:33:58;;;;;;;4.20;1.60;;;;;;;8.49;65.53;99006.86;79460;1295;3013339;-60
2024/04/04 01:36:26;;;;;;;6.80;2.20;;;;;;;8.48;65.46;99015.27;78228;1298;3027956;-61
2024/04/04 01:38:53;;;;;;;6.40;2.20;;;;;;;8.51;65.32;99011.31;79497;1298;3019432;-59
2024/04/04 01:41:19;;;;;;;7.60;2.40;;;;;;;8.55;65.23;99016.29;79544;1296;3013244;-61
2024/04/04 01:43:47;;;;;;;5.40;2.10;;;;;;;8.43;65.80;99015.90;78115;1300;3025877;-59
2024/04/04 01:46:14;;;;;;;5.40;2.20;;;;;;;8.38;66.11;99018.80;79377;1295;3013072;-59
2024/04/04 01:48:40;;;;;;;5.60;2.20;;;;;;;8.35;66.13;99022.65;79664;1300;3011363;-61
2024/04/04 01:51:08;;;;;;;8.30;2.80;;;;;;;8.33;66.33;99023.27;78182;1299;3027450;-59
2024/04/04 01:53:36;;;;;;;4.40;2.00;;;;;;;8.39;66.06;99022.23;79354;1295;3013491;-60
2024/04/04 01:56:03;;;;;;;10.00;2.20;;;;;;;8.30;66.52;99019.11;79272;1295;3013276;-60
2024/04/04 01:58:31;;;;;;;12.30;2.00;;;;;;;8.31;66.49;99014.20;78195;1298;3049967;-60
2024/04/04 02:00:58;;;;;;;6.20;2.00;;;;;;;8.33;66.31;99017.16;79737;1300;3012700;-62
2024/04/04 02:03:24;;;;;;;4.70;2.10;;;;;;;8.30;66.45;99018.08;79506;1295;3013311;-61
2024/04/04 02:05:52;;;;;;;4.40;2.00;;;;;;;8.11;67.53;99025.27;78242;1300;3028227;-62
2024/04/04 02:08:19;;;;;;;6.20;1.90;;;;;;;8.09;67.38;99028.53;79495;1295;3011887;-61
2024/04/04 02:10:45;;;;;;;7.80;2.40;;;;;;;8.18;66.94;99019.61;79514;1295;3011967;-58
2024/04/04 02:13:13;;;;;;;6.60;2.00;;;;;;;8.07;67.32;99013.27;78085;1300;3028655;-60
2024/04/04 02:15:40;;;;;;;9.90;1.90;;;;;;;8.08;67.13;99011.27;79323;1298;3012999;-59
2024/04/04 02:18:06;;;;;;;4.90;2.10;;;;;;;7.99;67.71;99010.63;79312;1295;3012839;-59
2024/04/04 02:20:34;;;;;;;8.50;2.30;;;;;;;8.01;67.65;99010.14;78072;1295;3028708;-60
2024/04/04 02:23:01;;;;;;;4.40;1.70;;;;;;;7.95;67.90;99010.63;79352;1296;3012856;-62
2024/04/04 02:25:28;;;;;;;2.90;1.40;;;;;;;7.97;68.02;99013.83;79354;1301;3011481;-63
2024/04/04 02:27:56;;;;;;;2.40;1.50;;;;;;;8.01;67.82;99017.96;78246;1301;3026494;-61
2024/04/04 02:30:22;;;;;;;10.40;1.80;;;;;;;7.97;67.85;99013.13;79356;1298;3013326;-61
2024/04/04 02:32:49;;;;;;;10.90;2.20;;;;;;;7.86;68.33;99009.74;79389;1302;3012182;-60
2024/04/04 02:35:18;;;;;;;7.30;1.80;;;;;;;7.91;68.11;99013.85;78147;1301;3025935;-64
2024/04/04 02:37:44;;;;;;;9.20;2.00;;;;;;;7.96;68.00;99019.27;79472;1295;3013500;-59
2024/04/04 02:40:12;;;;;;;9.30;2.40;;;;;;;7.89;68.16;99013.95;79316;1295;3011426;-59
2024/04/04 02:42:40;;;;;;;6.80;1.90;;;;;;;7.76;68.80;99014.52;78293;1300;3049145;-60
2024/04/04 02:45:07;;;;;;;4.90;1.90;;;;;;;7.64;69.52;99018.66;79437;1301;3012897;-60
2024/04/04 02:47:34;;;;;;;6.90;1.60;;;;;;;7.68;69.49;99017.77;79623;1300;3012681;-60
2024/04/04 02:50:03;;;;;;;3.00;1.60;;;;;;;7.67;69.60;99020.91;78201;1299;3028702;-61
2024/04/04 02:52:30;;;;;;;9.00;2.40;;;;;;;7.62;69.83;99024.70;79449;1295;3013288;-61
2024/04/04 02:54:56;;;;;;;4.70;1.90;;;;;;;7.65;69.70;99022.41;79342;1295;3011385;-60
2024/04/04 02:57:24;;;;;;;4.60;1.60;;;;;;;7.65;69.80;99023.87;78437;1298;3049695;-59
2024/04/04 02:59:51;;;;;;;6.50;1.70;;;;;;;7.65;69.66;99023.48;79623;1301;3013174;-60
2024/04/04 03:02:17;;;;;;;5.20;1.60;;;;;;;7.56;70.17;99032.16;79395;1295;3013128;-61
2024/04/04 03:04:45;;;;;;;4.40;1.80;;;;;;;7.59;69.84;99039.14;78061;1295;3027990;-59
2024/04/04 03:07:12;;;;;;;5.90;2.10;;;;;;;7.57;70.15;99049.18;79367;1295;3013237;-61
2024/04/04 03:09:38;;;;;;;7.40;2.00;;;;;;;7.45;70.85;99041.64;79543;1295;3011863;-62
2024/04/04 03:12:06;;;;;;;3.00;1.80;;;;;;;7.44;70.85;99046.60;78222;1301;3028587;-61
2024/04/04 03:14:33;;;;;;;8.50;2.00;;;;;;;7.37;71.17;99052.04;79613;1301;3013294;-62
2024/04/04 03:17:00;;;;;;;3.80;2.10;;;;;;;7.28;71.93;99048.33;79655;1298;3011672;-62
2024/04/04 03:19:28;;;;;;;11.20;1.90;;;;;;;7.17;72.41;99048.55;78119;1295;3051190;-62
2024/04/04 03:21:55;;;;;;;6.80;2.00;;;;;;;7.15;72.68;99052.83;79399;1296;3013588;-59
2024/04/04 03:24:21;;;;;;;4.40;1.90;;;;;;;7.20;72.51;99055.34;79470;1300;3011953;-60
2024/04/04 03:26:49;;;;;;;5.20;1.60;;;;;;;7.18;72.63;99056.17;78151;1299;3028400;-61
2024/04/04 03:29:16;;;;;;;7.90;1.90;;;;;;;7.16;72.75;99056.11;79486;1298;3020833;-64
2024/04/04 03:31:42;;;;;;;5.40;1.80;;;;;;;7.07;73.10;99060.59;79399;1295;3011600;-62
2024/04/04 03:34:10;;;;;;;4.30;1.80;;;;;;;7.00;73.54;99072.97;78201;1300;3028014;-60
2024/04/04 03:36:37;;;;;;;5.10;2.20;;;;;;;6.96;73.87;99070.92;79805;1295;3013451;-63
2024/04/04 03:39:03;;;;;;;6.90;2.70;;;;;;;7.03;73.42;99070.73;79506;1300;3011639;-61
2024/04/04 03:41:32;;;;;;;6.60;1.60;;;;;;;7.11;73.22;99063.16;78207;1298;3028173;-59
2024/04/04 03:43:59;;;;;;;5.40;1.60;;;;;;;7.14;73.18;99061.07;79495;1297;3014321;-60
2024/04/04 03:46:26;;;;;;;5.50;1.90;;;;;;;7.14;73.04;99065.23;79366;1296;3011690;-60
2024/04/04 03:48:55;;;;;;;5.60;2.10;;;;;;;7.05;73.73;99065.36;78354;1298;3051742;-59
2024/04/04 03:51:22;;;;;;;7.50;2.20;;;;;;;7.08;73.57;99063.16;79641;1294;3018478;-60
2024/04/04 03:53:48;;;;;;;3.80;2.00;;;;;;;7.05;73.65;99063.08;79467;1298;3011679;-59
2024/04/04 03:56:16;;;;;;;3.90;1.70;;;;;;;7.26;72.33;99052.77;78110;1297;3026486;-60
2024/04/04 03:58:42;;;;;;;9.00;2.00;;;;;;;7.14;73.10;99052.86;79491;1298;3013754;-60
2024/04/04 04:01:09;;;;;;;9.60;2.00;;;;;;;7.11;73.22;99053.42;79369;1296;3013250;-60
2024/04/04 04:03:37;;;;;;;9.90;2.50;;;;;;;7.12;73.29;99052.81;78382;1296;3027114;-59
2024/04/04 04:06:04;;;;;;;4.40;1.90;;;;;;;7.13;73.32;99050.30;79793;1295;3012930;-58
2024/04/04 04:08:30;;;;;;;9.30;2.20;;;;;;;7.23;72.69;99052.39;79562;1296;3013361;-59
2024/04/04 04:10:58;;;;;;;6.80;2.00;;;;;;;7.28;72.56;99044.50;78158;1298;3028521;-61
2024/04/04 04:13:25;;;;;;;11.30;2.40;;;;;;;7.34;72.02;99043.10;79505;1300;3013773;-60
2024/04/04 04:15:58;;;;;;;11.00;2.80;;;;;;;7.31;72.29;99038.39;79285;1301;3011659;-63
2024/04/04 04:18:26;;;;;;;9.80;2.40;;;;;;;7.40;71.90;99031.45;78166;1296;3052109;-59
2024/04/04 04:23:41;;;;;;;4.20;2.50;;;;;;;7.66;70.55;99030.23;78187;1296;3052391;-61
2024/04/04 04:26:07;;;;;;;6.20;3.10;;;;;;;7.75;69.84;99042.79;79569;1295;3013075;-63
2024/04/04 04:28:35;;;;;;;5.50;2.60;;;;;;;7.80;69.62;99042.15;79404;1294;3013448;-62
2024/04/04 04:31:04;;;;;;;6.70;2.50;;;;;;;7.84;69.48;99038.64;78090;1299;3069321;-62
2024/04/04 04:33:31;;;;;;;7.30;2.60;;;;;;;7.80;69.81;99038.52;79509;1294;3013753;-62
2024/04/04 04:35:57;;;;;;;7.80;3.20;;;;;;;7.86;69.76;99036.44;79444;1296;3011650;-59
2024/04/04 04:38:25;;;;;;;9.20;3.20;;;;;;;7.87;69.62;99048.26;78169;1295;3052823;-60
2024/04/04 04:40:52;;;;;;;6.20;3.10;;;;;;;7.96;69.69;99050.67;79486;1300;3013291;-60
2024/04/04 04:43:18;;;;;;;11.20;2.70;;;;;;;8.08;69.21;99039.88;79491;1300;3011545;-61
2024/04/04 04:45:46;;;;;;;9.10;2.20;;;;;;;8.10;68.76;99045.92;78050;1298;3026202;-59
2024/04/04 04:48:13;;;;;;;5.90;2.60;;;;;;;8.14;68.35;99046.37;79433;1298;3013796;-61
2024/04/04 04:50:39;;;;;;;10.80;2.70;;;;;;;8.19;68.13;99052.55;80000;1298;3011575;-61
2024/04/04 04:53:08;;;;;;;5.10;2.60;;;;;;;8.26;67.67;99056.30;78673;1301;3027958;-60
2024/04/04 04:55:35;;;;;;;10.80;3.10;;;;;;;8.30;67.46;99054.72;79379;1297;3014518;-59
2024/04/04 04:58:01;;;;;;;8.00;3.00;;;;;;;8.39;67.21;99051.38;79540;1301;3011606;-59
2024/04/04 05:00:30;;;;;;;5.70;2.40;;;;;;;8.55;66.90;99051.89;78077;1298;3068867;-62
2024/04/04 05:02:56;;;;;;;8.40;3.00;;;;;;;8.56;66.75;99051.98;79554;1296;3011955;-62
2024/04/04 05:05:23;;;;;;;10.60;3.10;;;;;;;8.69;66.41;99049.64;79519;1294;3011846;-59
2024/04/04 05:07:51;;;;;;;10.80;2.90;;;;;;;8.76;65.99;99053.13;78291;1295;3054265;-60
2024/04/04 05:10:18;;;;;;;7.40;2.60;;;;;;;8.82;65.85;99055.05;79361;1295;3013321;-62
2024/04/04 05:12:44;;;;;;;9.50;2.90;;;;;;;8.88;65.46;99060.41;79654;1299;3011692;-61
2024/04/04 05:15:12;;;;;;;12.50;2.80;;;;;;;8.99;65.02;99058.23;78346;1298;3026704;-62
2024/04/04 05:17:39;;;;;;;7.90;2.40;;;;;;;9.08;64.71;99058.19;79549;1295;3011647;-62
2024/04/04 05:20:06;;;;;;;5.40;2.40;;;;;;;9.14;64.80;99061.80;79949;1295;3011519;-61
2024/04/04 05:22:34;;;;;;;7.30;2.50;;;;;;;9.22;64.23;99070.08;78438;1298;3052885;-61
2024/04/04 05:25:01;;;;;;;8.40;3.80;;;;;;;9.32;63.91;99066.84;79804;1298;3012457;-61
2024/04/04 05:27:28;;;;;;;5.30;2.30;;;;;;;9.47;63.70;99058.90;79583;1297;3011603;-62
2024/04/04 05:29:55;;;;;;;7.00;2.30;;;;;;;9.61;63.33;99068.91;78188;1296;3026662;-61
2024/04/04 05:32:22;;;;;;;9.60;3.20;;;;;;;9.78;62.80;99068.52;79514;1298;3012906;-63
2024/04/04 05:34:50;;;;;;;8.80;2.70;;;;;;;9.93;61.85;99071.91;79387;1297;3011630;-61
2024/04/04 05:37:18;;;;;;;6.20;3.00;;;;;;;10.07;61.22;99078.93;78953;1298;3052622;-62
2024/04/04 05:39:45;;;;;;;7.20;2.50;;;;;;;10.12;61.10;99079.48;79622;1295;3011621;-64
2024/04/04 05:42:11;;;;;;;8.20;2.00;;;;;;;10.25;60.42;99074.77;79611;1299;3011207;-63
2024/04/04 05:44:39;;;;;;;13.40;2.70;;;;;;;10.36;60.14;99080.02;78372;1298;3029006;-64
2024/04/04 05:47:06;;;;;;;10.30;1.90;;;;;;;10.43;59.21;99080.98;79696;1295;3020391;-64
2024/04/04 05:49:33;;;;;;;4.70;1.70;;;;;;;10.57;58.66;99088.28;79568;1295;3011715;-65
2024/04/04 05:52:01;;;;;;;7.50;2.20;;;;;;;10.66;58.24;99083.45;78291;1294;3026179;-64
2024/04/04 05:54:28;;;;;;;6.10;2.20;;;;;;;10.80;58.34;99082.05;79865;1299;3013724;-61
2024/04/04 05:56:54;;;;;;;5.70;1.90;;;;;;;10.82;58.97;99087.14;79763;1295;3011887;-62
2024/04/04 05:59:22;;;;;;;9.20;2.00;;;;;;;10.94;58.63;99084.95;78947;1298;3026174;-61
2024/04/04 06:01:49;;;;;;;5.00;2.20;;;;;;;11.10;58.37;99087.89;80057;1294;3013219;-63
2024/04/04 06:04:15;;;;;;;6.30;2.20;;;;;;;11.23;58.49;99082.41;79744;1295;3011508;-63
2024/04/04 06:06:44;;;;;;;11.50;1.90;;;;;;;11.36;57.44;99093.48;78450;1295;3026697;-60
2024/04/04 06:09:11;;;;;;;7.70;2.00;;;;;;;11.57;56.96;99084.80;79616;1298;3012401;-60
2024/04/04 06:11:39;;;;;;;8.40;1.90;;;;;;;11.71;56.34;99086.59;80119;1298;3011414;-60
2024/04/04 06:14:07;;;;;;;8.70;1.90;;;;;;;11.67;56.23;99092.18;78793;1298;3068309;-60
2024/04/04 06:16:34;;;;;;;8.90;1.90;;;;;;;11.86;56.06;99086.44;80029;1298;3013935;-61
2024/04/04 06:19:01;;;;;;;5.80;1.90;;;;;;;11.99;55.96;99085.00;79620;1298;3011686;-61
2024/04/04 06:21:29;;;;;;;6.40;1.50;;;;;;;12.13;55.46;99089.80;78410;1298;3026702;-61
2024/04/04 06:23:55;;;;;;;5.20;1.40;;;;;;;12.23;54.75;99081.53;79497;1300;3018975;-61
2024/04/04 06:26:25;;;;;;;5.30;1.60;;;;;;;12.31;54.39;99077.58;79515;1306;3011705;-61
2024/04/04 06:28:54;;;;;;;3.00;1.40;;;;;;;12.41;54.33;99080.92;78424;1298;3070041;-61
2024/04/04 06:31:24;;;;;;;6.30;1.80;;;;;;;12.47;53.90;99078.32;79701;1296;3012184;-60
2024/04/04 06:33:52;;;;;;;6.60;1.60;;;;;;;12.62;53.00;99081.41;78493;1298;3049382;-61
2024/04/04 06:36:18;;;;;;;6.70;1.60;;;;;;;12.71;52.31;99085.85;79609;1298;3018511;-58
2024/04/04 06:38:45;;;;;;;6.30;1.70;;;;;;;12.77;52.11;99084.87;79788;1298;3011581;-59
2024/04/04 06:41:13;;;;;;;6.70;2.20;;;;;;;12.85;51.88;99089.23;78423;1298;3028215;-62
2024/04/04 06:43:39;;;;;;;5.80;1.80;;;;;;;12.86;52.00;99088.92;80168;1295;3021005;-60
2024/04/04 06:46:06;;;;;;;5.50;1.70;;;;;;;12.98;51.17;99088.02;79668;1296;3012907;-62
2024/04/04 06:48:40;;;;;;;8.00;1.40;;;;;;;13.22;50.78;99086.89;78627;1295;3026127;-62
2024/04/04 06:51:10;;;;;;;5.40;1.70;;;;;;;13.46;50.31;99083.81;79911;1296;3011977;-63
2024/04/04 06:53:39;;;;;;;6.90;1.50;;;;;;;13.64;48.74;99082.25;78455;1295;3049893;-61
2024/04/04 06:56:06;;;;;;;5.20;1.50;;;;;;;13.83;48.23;99077.40;79835;1301;3015485;-62
2024/04/04 06:58:33;;;;;;;8.50;1.40;;;;;;;13.96;48.00;99077.76;79712;1295;3013608;-66
2024/04/04 07:01:01;;;;;;;4.30;1.40;;;;;;;14.13;47.54;99075.30;78909;1295;3052240;-66
2024/04/04 07:03:28;;;;;;;4.50;1.30;;;;;;;14.27;45.70;99069.80;79835;1296;3013564;-62
2024/04/04 07:05:54;;;;;;;4.20;1.20;;;;;;;14.39;45.70;99074.66;79635;1298;3012782;-62
2024/04/04 07:08:22;;;;;;;8.50;1.40;;;;;;;14.48;46.05;99074.97;78210;1298;3027065;-62
2024/04/04 07:10:49;;;;;;;8.40;1.40;;;;;;;14.62;45.56;99071.35;80042;1297;3018339;-64
2024/04/04 07:13:16;;;;;;;2.80;1.20;;;;;;;14.76;43.81;99078.26;79663;1298;3011672;-59
2024/04/04 07:15:44;;;;;;;4.70;1.00;;;;;;;14.82;43.03;99067.89;78275;1299;3026499;-62
2024/04/04 07:18:10;;;;;;;3.50;1.30;;;;;;;14.88;42.77;99078.66;79403;1295;3013807;-64
2024/04/04 07:20:37;;;;;;;8.20;1.30;;;;;;;14.93;43.04;99071.79;79575;1296;3011624;-64
2024/04/04 07:23:05;;;;;;;8.30;1.60;;;;;;;15.13;43.68;99073.02;78135;1298;3027619;-62
2024/04/04 07:25:32;;;;;;;5.90;1.00;;;;;;;15.21;43.45;99077.27;79566;1298;3013073;-62
2024/04/04 07:28:00;;;;;;;6.10;1.40;;;;;;;15.34;42.28;99074.29;79500;1296;3011748;-66
2024/04/04 07:30:29;;;;;;;18.20;1.20;;;;;;;15.44;41.44;99071.93;78542;1298;3052824;-63
2024/04/04 07:32:56;;;;;;;2.90;0.80;;;;;;;15.56;40.86;99072.64;79408;1293;3014979;-63
2024/04/04 07:35:22;;;;;;;4.40;1.20;;;;;;;15.71;41.08;99075.42;79472;1296;3011899;-66
2024/04/04 07:37:50;;;;;;;6.40;1.00;;;;;;;15.93;40.13;99068.44;78375;1298;3050271;-66
2024/04/04 07:40:17;;;;;;;8.60;1.00;;;;;;;16.05;37.32;99071.24;79683;1295;3019162;-62
2024/04/04 07:42:46;;;;;;;5.20;0.80;;;;;;;16.27;37.19;99053.34;79623;1298;3011615;-65
2024/04/04 07:45:14;;;;;;;2.90;0.90;;;;;;;16.41;36.90;99058.96;78234;1303;3051838;-63
2024/04/04 07:47:40;;;;;;;7.60;0.90;;;;;;;16.52;37.01;99053.61;79651;1295;3011479;-62
2024/04/04 07:50:08;;;;;;;2.10;0.80;;;;;;;16.61;36.54;99064.27;79642;1298;3011429;-64
2024/04/04 07:52:36;;;;;;;8.20;1.20;;;;;;;16.48;36.64;99059.42;78391;1301;3027275;-63
2024/04/04 07:55:03;;;;;;;3.90;0.90;;;;;;;16.55;37.26;99055.44;79457;1311;3018186;-63
2024/04/04 07:57:30;;;;;;;4.20;1.10;;;;;;;16.61;37.56;99053.80;79790;1296;3011398;-63
2024/04/04 07:59:58;;;;;;;6.00;1.60;;;;;;;16.65;37.86;99051.86;78424;1295;3051518;-61
2024/04/04 08:02:26;;;;;;;4.00;1.00;;;;;;;16.76;37.27;99051.39;79537;1295;3019421;-64
2024/04/04 08:04:53;;;;;;;2.40;0.50;;;;;;;16.80;35.38;99066.34;79773;1295;3011526;-64
2024/04/04 08:07:21;;;;;;;8.10;1.50;;;;;;;16.73;34.43;99061.36;78557;1298;3050335;-62
2024/04/04 08:09:48;;;;;;;4.80;0.80;;;;;;;16.85;33.31;99063.59;79969;1298;3013418;-62
2024/04/04 08:12:14;;;;;;;4.10;0.90;;;;;;;16.96;33.14;99043.34;79769;1298;3011388;-62
2024/04/04 08:14:45;;;;;;;6.20;0.90;;;;;;;16.99;31.83;99051.94;78236;1298;3028143;-66
2024/04/04 08:17:12;;;;;;;10.70;0.80;;;;;;;17.16;31.44;99050.86;80133;1297;3012056;-60
2024/04/04 08:19:41;;;;;;;6.90;0.80;;;;;;;17.31;31.06;99032.77;78901;1295;3011627;-59
2024/04/04 08:22:10;;;;;;;6.90;1.00;;;;;;;17.41;30.99;99036.80;79619;1298;3018856;-61
2024/04/04 08:24:37;;;;;;;17.60;0.90;;;;;;;17.52;30.37;99048.80;79631;1294;3011514;-62
2024/04/04 08:27:05;;;;;;;7.40;0.60;;;;;;;17.57;30.48;99024.44;78529;1298;3053009;-70
2024/04/04 08:29:31;;;;;;;10.10;0.80;;;;;;;17.66;30.51;99019.85;79502;1298;3013073;-61
2024/04/04 08:31:58;;;;;;;4.70;0.70;;;;;;;17.71;30.09;99022.05;79501;1298;3011617;-61
2024/04/04 08:34:26;;;;;;;5.40;0.90;;;;;;;17.72;29.26;99042.86;78338;1299;3025913;-61
2024/04/04 08:36:52;;;;;;;4.40;0.70;;;;;;;17.85;29.13;99013.77;79492;1299;3013555;-63
2024/04/04 08:39:20;;;;;;;10.90;1.00;;;;;;;17.73;29.22;99015.26;79490;1298;3011483;-59
2024/04/04 08:41:48;;;;;;;7.10;0.80;;;;;;;17.89;29.54;99016.59;78349;1298;3051991;-62
2024/04/04 08:44:15;;;;;;;11.20;0.80;;;;;;;17.99;28.55;99029.98;79845;1298;3013083;-61
2024/04/04 08:46:41;;;;;;;6.30;0.90;;;;;;;18.00;28.63;99035.58;79751;1294;3011507;-61
2024/04/04 08:49:09;;;;;;;5.70;0.80;;;;;;;17.91;28.77;99024.85;78848;1296;3028147;-62
2024/04/04 08:51:37;;;;;;;5.80;0.70;;;;;;;17.92;28.75;99022.70;79516;1298;3018738;-61
2024/04/04 08:54:04;;;;;;;7.90;0.90;;;;;;;17.77;29.15;99015.40;79424;1296;3013192;-62
2024/04/04 08:56:32;;;;;;;8.70;0.90;;;;;;;17.78;29.50;99001.17;78637;1298;3053139;-64
2024/04/04 08:58:58;;;;;;;4.40;0.80;;;;;;;18.00;29.64;99016.04;80074;1301;3013329;-61
2024/04/04 09:01:26;;;;;;;4.40;0.60;;;;;;;18.04;29.15;99027.71;79369;1298;3011358;-59
2024/04/04 09:03:54;;;;;;;9.40;1.10;;;;;;;17.94;28.69;99025.48;78445;1296;3049412;-60
2024/04/04 09:06:24;;;;;;;8.40;0.90;;;;;;;18.00;28.18;99001.33;79635;1299;3013804;-60
2024/04/04 09:08:54;;;;;;;10.10;1.00;;;;;;;18.16;28.02;99004.58;78304;1298;3052523;-61
2024/04/04 09:11:25;;;;;;;9.00;1.10;;;;;;;18.09;28.37;99015.33;79499;1298;3013150;-62
2024/04/04 09:14:09;;;;;;;9.70;0.60;;;;;;;18.18;27.60;99014.05;78162;1298;3069652;-61
2024/04/04 09:16:41;;;;;;;12.90;1.10;;;;;;;18.28;26.90;99005.79;78247;1298;3053047;-60
2024/04/04 09:19:11;;;;;;;6.90;0.80;;;;;;;18.41;26.04;99006.45;79409;1296;3011651;-63
2024/04/04 09:21:39;;;;;;;15.30;1.10;;;;;;;18.61;26.12;98997.89;78356;1298;3048278;-63
2024/04/04 09:24:08;;;;;;;5.00;0.70;;;;;;;18.76;25.59;99026.74;79496;1298;3013357;-62
2024/04/04 09:26:38;;;;;;;4.10;0.60;;;;;;;18.65;25.83;99007.30;78860;1298;3012187;-64
2024/04/04 09:29:05;;;;;;;1.30;0.40;;;;;;;18.68;25.87;98994.53;79618;1298;3013029;-62
2024/04/04 09:31:36;;;;;;;3.00;0.60;;;;;;;18.70;25.62;99012.14;79491;1298;3011649;-62
2024/04/04 09:34:04;;;;;;;4.00;0.70;;;;;;;18.73;25.91;99010.16;78204;1298;3051621;-62
2024/04/04 09:36:39;;;;;;;2.90;0.60;;;;;;;18.68;25.73;98991.20;79503;1296;3013285;-62
2024/04/04 09:39:08;;;;;;;11.60;0.90;;;;;;;18.87;25.75;99018.95;78359;1295;3052796;-64
2024/04/04 09:41:38;;;;;;;4.50;0.50;;;;;;;18.86;25.68;98989.55;80050;1298;3011807;-64
2024/04/04 09:44:06;;;;;;;8.30;0.60;;;;;;;18.88;25.25;99004.95;78703;1298;3051988;-62
2024/04/04 09:46:39;;;;;;;3.90;0.60;;;;;;;18.78;24.44;98999.73;79596;1295;3013084;-61
2024/04/04 09:49:07;;;;;;;8.00;0.70;;;;;;;18.89;24.09;98993.83;78480;1298;3052891;-62
2024/04/04 09:51:34;;;;;;;13.50;0.90;;;;;;;18.93;24.22;98993.77;79412;1298;3012904;-60
2024/04/04 09:54:00;;;;;;;7.60;0.50;;;;;;;18.70;24.60;99000.96;79186;1301;3013019;-60
2024/04/04 09:56:28;;;;;;;3.60;0.60;;;;;;;18.67;24.27;98997.12;78254;1298;3028476;-62
2024/04/04 09:58:55;;;;;;;2.80;0.40;;;;;;;18.62;24.47;98985.73;79260;1301;3020630;-65
2024/04/04 10:01:25;;;;;;;6.10;1.00;;;;;;;18.77;24.72;98989.05;79347;1301;3012168;-62
2024/04/04 10:03:53;;;;;;;5.70;1.00;;;;;;;19.01;24.66;98995.14;78305;1299;3052275;-62
2024/04/04 10:06:29;;;;;;;4.30;0.80;;;;;;;19.01;24.63;98995.64;79547;1295;3013744;-62
2024/04/04 10:08:58;;;;;;;2.80;0.80;;;;;;;18.83;24.39;99012.14;78170;1296;3054223;-61
2024/04/04 10:11:28;;;;;;;8.50;0.80;;;;;;;18.83;24.29;99016.28;79496;1298;3013028;-61
2024/04/04 10:14:00;;;;;;;13.80;1.00;;;;;;;18.81;24.38;98988.23;78772;1295;3051416;-60
2024/04/04 10:16:35;;;;;;;3.00;0.70;;;;;;;18.83;24.55;98985.45;79712;1295;3013365;-62
2024/04/04 10:19:10;;;;;;;5.60;0.70;;;;;;;19.04;24.66;98988.63;78392;1299;3052664;-62
2024/04/04 10:21:39;;;;;;;3.90;0.70;;;;;;;19.22;24.54;98973.60;78952;1295;3013039;-62
2024/04/04 10:24:07;;;;;;;4.80;0.70;;;;;;;19.45;24.55;98969.55;79601;1298;3013170;-61
2024/04/04 10:26:34;;;;;;;2.60;0.60;;;;;;;19.59;24.71;98982.70;79920;1296;3011643;-61
2024/04/04 10:29:03;;;;;;;3.70;0.80;;;;;;;19.63;24.68;98965.89;78487;1296;3049350;-61
2024/04/04 10:31:30;;;;;;;2.50;0.90;;;;;;;19.72;24.64;98965.34;79798;1293;3013232;-61
2024/04/04 10:34:01;;;;;;;5.60;1.00;;;;;;;19.81;24.51;98970.40;79534;1297;3011683;-61
2024/04/04 10:36:40;;;;;;;4.20;0.60;;;;;;;19.65;24.68;98972.25;78132;1297;3051498;-61
2024/04/04 10:39:16;;;;;;;7.60;0.70;;;;;;;19.62;24.93;98981.55;78042;1298;3057504;-60
2024/04/04 10:41:46;;;;;;;3.20;0.80;;;;;;;19.48;25.33;98963.63;78909;1295;3049676;-60
2024/04/04 10:44:20;;;;;;;2.50;0.60;;;;;;;19.66;25.49;98964.16;79702;1296;3012653;-63
2024/04/04 10:46:55;;;;;;;3.90;0.40;;;;;;;19.74;25.26;98948.92;77978;1298;3051482;-62
2024/04/04 10:49:26;;;;;;;4.50;0.80;;;;;;;19.82;25.22;98968.77;78135;1298;3054271;-61
2024/04/04 10:51:59;;;;;;;8.30;0.90;;;;;;;19.68;25.09;98976.27;79762;1295;3013151;-61
2024/04/04 10:54:29;;;;;;;7.60;0.80;;;;;;;19.67;25.24;98967.83;78294;1298;3051661;-63
2024/04/04 10:57:00;;;;;;;4.60;0.60;;;;;;;19.56;25.67;98969.20;80057;1295;3012803;-61
2024/04/04 10:59:28;;;;;;;1.90;0.60;;;;;;;19.39;25.99;98991.14;78311;1298;3047972;-67
2024/04/04 11:02:02;;;;;;;5.40;0.90;;;;;;;19.44;25.99;98977.37;79314;1298;3013004;-65
